createdAt,value
2023-04-16T00:01:26.352Z,9.18
2023-04-16T00:04:07.008Z,9.70
2023-04-16T00:06:36.398Z,10.63
2023-04-16T00:09:05.914Z,9.95
2023-04-16T00:11:40.525Z,9.48
2023-04-16T00:14:11.593Z,8.38
2023-04-16T00:16:44.324Z,8.32
2023-04-16T00:19:15.577Z,7.53
2023-04-16T00:21:50.399Z,7.75
2023-04-16T00:24:28.181Z,7.13
2023-04-16T00:27:03.461Z,7.38
2023-04-16T00:29:38.680Z,8.45
2023-04-16T00:32:19.405Z,7.95
2023-04-16T00:35:05.415Z,9.95
2023-04-16T00:37:39.155Z,8.98
2023-04-16T00:40:10.455Z,11.23
2023-04-16T00:42:43.542Z,13.00
2023-04-16T00:45:30.281Z,11.35
2023-04-16T00:48:03.542Z,11.15
2023-04-16T00:50:35.984Z,10.30
2023-04-16T00:53:10.862Z,9.80
2023-04-16T00:55:39.978Z,10.35
2023-04-16T00:58:09.386Z,10.40
2023-04-16T01:00:38.028Z,13.05
2023-04-16T01:03:12.124Z,13.00
2023-04-16T01:05:47.237Z,13.20
2023-04-16T01:08:21.738Z,16.33
2023-04-16T01:10:55.148Z,16.42
2023-04-16T01:13:35.126Z,15.68
2023-04-16T01:16:15.553Z,15.73
2023-04-16T01:18:46.693Z,14.00
2023-04-16T01:21:19.640Z,12.80
2023-04-16T01:23:48.390Z,13.93
2023-04-16T01:26:17.680Z,14.70
2023-04-16T01:28:47.038Z,16.05
2023-04-16T01:31:15.620Z,17.10
2023-04-16T01:33:46.780Z,17.73
2023-04-16T01:36:30.512Z,15.38
2023-04-16T01:39:02.385Z,15.48
2023-04-16T01:41:33.281Z,14.05
2023-04-16T01:44:02.043Z,15.57
2023-04-16T01:46:32.487Z,14.20
2023-04-16T01:49:01.108Z,14.07
2023-04-16T01:51:32.376Z,14.93
2023-04-16T01:54:00.828Z,14.40
2023-04-16T01:56:29.768Z,15.02
2023-04-16T01:58:59.938Z,13.32
2023-04-16T02:01:32.021Z,13.02
2023-04-16T02:04:05.530Z,12.98
2023-04-16T02:06:53.894Z,13.68
2023-04-16T02:09:23.714Z,12.88
2023-04-16T02:11:52.903Z,13.38
2023-04-16T02:14:25.553Z,12.77
2023-04-16T02:16:54.734Z,12.40
2023-04-16T02:19:23.641Z,11.25
2023-04-16T02:21:55.652Z,13.20
2023-04-16T02:24:24.360Z,13.93
2023-04-16T02:26:57.681Z,15.32
2023-04-16T02:29:29.136Z,14.90
2023-04-16T02:32:09.873Z,16.30
2023-04-16T02:34:43.628Z,16.02
2023-04-16T02:37:16.020Z,15.20
2023-04-16T02:39:45.672Z,16.67
2023-04-16T02:42:18.932Z,17.70
2023-04-16T02:44:47.501Z,17.65
2023-04-16T02:47:16.469Z,17.02
2023-04-16T02:49:44.906Z,18.17
2023-04-16T02:52:15.779Z,18.38
2023-04-16T02:54:44.241Z,18.67
2023-04-16T02:57:13.537Z,17.58
2023-04-16T02:59:42.247Z,15.88
2023-04-16T03:02:10.930Z,15.82
2023-04-16T03:04:57.675Z,14.18
2023-04-16T03:07:32.440Z,14.38
2023-04-16T03:10:02.904Z,13.60
2023-04-16T03:12:34.560Z,14.20
2023-04-16T03:15:14.847Z,14.00
2023-04-16T03:17:46.881Z,12.82
2023-04-16T03:20:19.476Z,15.43
2023-04-16T03:22:51.873Z,13.65
2023-04-16T03:25:29.311Z,13.13
2023-04-16T03:28:03.945Z,12.35
2023-04-16T03:30:36.114Z,12.57
2023-04-16T03:33:13.531Z,11.40
2023-04-16T03:35:49.680Z,11.68
2023-04-16T03:38:48.929Z,12.65
2023-04-16T03:41:24.507Z,11.00
2023-04-16T03:43:58.635Z,10.48
2023-04-16T03:46:58.170Z,10.32
2023-04-16T03:49:51.659Z,10.27
2023-04-16T03:52:26.374Z,10.10
2023-04-16T03:54:58.558Z,9.23
2023-04-16T03:57:28.637Z,9.70
2023-04-16T03:59:59.989Z,9.60
2023-04-16T04:02:33.154Z,9.55
2023-04-16T04:05:05.236Z,9.95
2023-04-16T04:07:33.991Z,10.05
2023-04-16T04:10:04.118Z,9.07
2023-04-16T04:12:33.974Z,9.63
2023-04-16T04:15:03.473Z,9.73
2023-04-16T04:17:33.974Z,9.10
2023-04-16T04:20:05.044Z,11.60
2023-04-16T04:23:04.103Z,9.85
2023-04-16T04:25:35.333Z,9.65
2023-04-16T04:28:05.235Z,8.18
2023-04-16T04:30:35.910Z,9.93
2023-04-16T04:33:05.920Z,9.80
2023-04-16T04:35:38.992Z,9.73
2023-04-16T04:38:16.120Z,8.43
2023-04-16T04:40:47.593Z,10.10
2023-04-16T04:43:16.006Z,9.32
2023-04-16T04:45:44.758Z,8.45
2023-04-16T04:48:15.036Z,8.82
2023-04-16T04:50:43.870Z,8.82
2023-04-16T04:53:15.108Z,9.57
2023-04-16T04:55:52.295Z,9.25
2023-04-16T04:58:27.083Z,8.80
2023-04-16T05:00:59.288Z,9.63
2023-04-16T05:03:33.050Z,8.70
2023-04-16T05:06:04.726Z,8.57
2023-04-16T05:08:52.614Z,20.83
2023-04-16T05:11:42.150Z,13.20
2023-04-16T05:14:18.202Z,7.53
2023-04-16T05:16:47.349Z,10.27
2023-04-16T05:19:16.511Z,18.75
2023-04-16T05:21:45.493Z,10.20
2023-04-16T05:24:15.070Z,11.15
2023-04-16T05:26:45.028Z,21.98
2023-04-16T05:29:13.408Z,17.63
2023-04-16T05:31:41.968Z,16.40
2023-04-16T05:34:10.572Z,13.80
2023-04-16T05:36:38.908Z,16.52
2023-04-16T05:39:07.953Z,14.50
2023-04-16T05:41:36.632Z,15.25
2023-04-16T05:44:06.714Z,29.98
2023-04-16T05:46:35.238Z,15.00
2023-04-16T05:49:03.576Z,13.32
2023-04-16T05:51:32.264Z,12.68
2023-04-16T05:54:00.602Z,12.77
2023-04-16T05:56:28.866Z,12.68
2023-04-16T05:59:02.317Z,13.80
2023-04-16T06:01:33.410Z,12.02
2023-04-16T06:04:02.765Z,11.40
2023-04-16T06:06:31.225Z,11.07
2023-04-16T06:08:59.497Z,12.23
2023-04-16T06:11:28.847Z,12.40
2023-04-16T06:13:57.295Z,12.60
2023-04-16T06:16:25.702Z,13.20
2023-04-16T06:18:55.905Z,12.75
2023-04-16T06:21:24.686Z,13.32
2023-04-16T06:23:52.962Z,11.30
2023-04-16T06:26:21.248Z,11.25
2023-04-16T06:28:49.923Z,10.07
2023-04-16T06:31:18.263Z,8.63
2023-04-16T06:33:46.480Z,7.80
2023-04-16T06:36:16.808Z,8.80
2023-04-16T06:38:45.403Z,9.27
2023-04-16T06:41:14.892Z,9.85
2023-04-16T06:43:43.376Z,7.43
2023-04-16T06:46:12.034Z,8.80
2023-04-16T06:48:40.655Z,8.40
2023-04-16T06:51:09.259Z,8.57
2023-04-16T06:53:39.548Z,9.60
2023-04-16T06:56:08.573Z,8.57
2023-04-16T06:58:36.925Z,8.98
2023-04-16T07:01:05.702Z,10.02
2023-04-16T07:03:34.188Z,10.82
2023-04-16T07:06:02.675Z,9.60
2023-04-16T07:08:31.022Z,10.73
2023-04-16T07:11:01.088Z,10.95
2023-04-16T07:13:29.395Z,11.05
2023-04-16T07:15:58.054Z,10.73
2023-04-16T07:18:26.530Z,10.30
2023-04-16T07:20:54.793Z,10.80
2023-04-16T07:23:23.252Z,11.35
2023-04-16T07:25:51.729Z,11.10
2023-04-16T07:28:22.040Z,11.57
2023-04-16T07:30:50.450Z,10.68
2023-04-16T07:33:18.746Z,10.68
2023-04-16T07:35:47.367Z,13.32
2023-04-16T07:38:16.446Z,11.85
2023-04-16T07:40:44.838Z,12.93
2023-04-16T07:43:13.530Z,14.20
2023-04-16T07:45:43.217Z,12.98
2023-04-16T07:48:11.549Z,13.60
2023-04-16T07:50:39.857Z,12.25
2023-04-16T07:53:08.307Z,12.50
2023-04-16T07:55:36.565Z,13.20
2023-04-16T07:58:06.425Z,12.48
2023-04-16T08:00:34.749Z,12.38
2023-04-16T08:03:04.998Z,12.63
2023-04-16T08:05:33.594Z,12.32
2023-04-16T08:08:01.827Z,13.88
2023-04-16T08:10:30.247Z,14.27
2023-04-16T08:12:58.859Z,12.75
2023-04-16T08:15:27.499Z,12.57
2023-04-16T08:17:55.825Z,13.60
2023-04-16T08:20:25.705Z,13.45
2023-04-16T08:22:54.961Z,14.40
2023-04-16T08:25:24.698Z,14.80
2023-04-16T08:27:52.902Z,13.48
2023-04-16T08:30:21.985Z,13.97
2023-04-16T08:32:50.802Z,15.17
2023-04-16T08:35:19.319Z,14.70
2023-04-16T08:37:48.897Z,13.57
2023-04-16T08:40:17.205Z,14.23
2023-04-16T08:42:48.128Z,13.90
2023-04-16T08:45:20.322Z,12.97
2023-04-16T08:47:50.503Z,13.80
2023-04-16T08:50:23.614Z,11.80
2023-04-16T08:52:54.714Z,12.17
2023-04-16T08:55:26.155Z,12.50
2023-04-16T08:58:02.063Z,11.20
2023-04-16T09:00:35.771Z,10.53
2023-04-16T09:03:08.660Z,10.20
2023-04-16T09:05:38.026Z,10.57
2023-04-16T09:08:10.864Z,10.60
2023-04-16T09:10:39.529Z,9.33
2023-04-16T09:13:09.553Z,9.80
2023-04-16T09:15:38.173Z,10.40
2023-04-16T09:18:10.011Z,8.93
2023-04-16T09:20:38.288Z,9.60
2023-04-16T09:23:07.974Z,10.40
2023-04-16T09:25:37.393Z,10.33
2023-04-16T09:28:08.811Z,11.47
2023-04-16T09:30:38.266Z,9.73
2023-04-16T09:33:16.858Z,10.17
2023-04-16T09:35:49.491Z,10.03
2023-04-16T09:38:19.497Z,10.60
2023-04-16T09:40:48.572Z,11.20
2023-04-16T09:43:18.586Z,10.40
2023-04-16T09:45:51.817Z,12.10
2023-04-16T09:48:30.674Z,10.70
2023-04-16T09:50:59.057Z,12.60
2023-04-16T09:53:30.168Z,12.80
2023-04-16T09:55:58.979Z,13.20
2023-04-16T09:58:27.439Z,12.63
2023-04-16T10:00:58.272Z,11.43
2023-04-16T10:03:33.514Z,12.40
2023-04-16T10:06:03.339Z,16.45
2023-04-16T10:08:33.106Z,13.80
2023-04-16T10:11:01.965Z,16.65
2023-04-16T10:13:31.274Z,13.15
2023-04-16T10:16:00.106Z,12.00
2023-04-16T10:18:30.278Z,12.20
2023-04-16T10:21:01.761Z,13.15
2023-04-16T10:23:30.845Z,12.73
2023-04-16T10:26:01.688Z,12.52
2023-04-16T10:28:30.388Z,11.23
2023-04-16T10:30:59.775Z,10.10
2023-04-16T10:33:33.938Z,10.43
2023-04-16T10:36:13.030Z,10.67
2023-04-16T10:38:42.268Z,12.50
2023-04-16T10:41:11.995Z,12.80
2023-04-16T10:43:46.006Z,10.73
2023-04-16T10:46:24.951Z,9.97
2023-04-16T10:48:55.691Z,9.30
2023-04-16T10:51:31.424Z,10.10
2023-04-16T10:54:05.147Z,11.80
2023-04-16T10:56:36.725Z,10.47
2023-04-16T10:59:06.727Z,10.67
2023-04-16T11:01:39.977Z,10.70
2023-04-16T11:04:31.968Z,10.23
2023-04-16T11:07:05.264Z,9.60
2023-04-16T11:09:57.762Z,10.20
2023-04-16T11:12:33.344Z,11.10
2023-04-16T11:15:03.728Z,10.05
2023-04-16T11:17:34.799Z,10.25
2023-04-16T11:20:17.295Z,10.93
2023-04-16T11:22:55.036Z,9.57
2023-04-16T11:25:24.002Z,8.90
2023-04-16T11:27:54.815Z,8.82
2023-04-16T11:30:30.878Z,8.18
2023-04-16T11:33:02.140Z,9.10
2023-04-16T11:35:30.623Z,9.30
2023-04-16T11:38:02.338Z,7.33
2023-04-16T11:40:31.934Z,7.80
2023-04-16T11:43:04.966Z,9.20
2023-04-16T11:45:33.210Z,8.57
2023-04-16T11:48:04.458Z,8.87
2023-04-16T11:50:32.707Z,8.17
2023-04-16T11:53:06.121Z,8.90
2023-04-16T11:55:44.283Z,7.95
2023-04-16T11:58:17.181Z,9.15
2023-04-16T12:00:46.437Z,8.32
2023-04-16T12:03:17.672Z,7.57
2023-04-16T12:05:46.177Z,7.93
2023-04-16T12:08:17.344Z,7.63
2023-04-16T12:10:56.012Z,8.18
2023-04-16T12:13:28.636Z,9.82
2023-04-16T12:15:58.022Z,11.95
2023-04-16T12:18:27.613Z,9.40
2023-04-16T12:20:56.099Z,13.52
2023-04-16T12:23:29.027Z,10.00
2023-04-16T12:25:59.760Z,4.72
2023-04-16T12:28:34.330Z,4.10
2023-04-16T12:31:03.636Z,3.65
2023-04-16T12:33:32.190Z,3.35
2023-04-16T12:36:01.784Z,3.72
2023-04-16T12:38:31.059Z,3.70
2023-04-16T12:40:59.301Z,4.05
2023-04-16T12:43:28.637Z,4.30
2023-04-16T12:45:58.343Z,3.83
2023-04-16T12:48:26.655Z,4.05
2023-04-16T12:50:55.360Z,4.20
2023-04-16T12:53:23.672Z,4.10
2023-04-16T12:55:52.094Z,3.95
2023-04-16T12:58:22.877Z,3.85
2023-04-16T13:00:53.939Z,4.03
2023-04-16T13:03:23.925Z,3.88
2023-04-16T13:05:52.367Z,3.75
2023-04-16T13:08:20.734Z,3.70
2023-04-16T13:10:49.043Z,3.10
2023-04-16T13:13:17.336Z,2.95
2023-04-16T13:15:48.122Z,3.15
2023-04-16T13:18:16.376Z,3.67
2023-04-16T13:20:49.362Z,3.97
2023-04-16T13:23:17.692Z,4.18
2023-04-16T13:25:46.045Z,4.30
2023-04-16T13:28:14.288Z,4.38
2023-04-16T13:30:49.144Z,4.00
2023-04-16T13:33:17.541Z,4.10
2023-04-16T13:35:45.774Z,3.65
2023-04-16T13:38:15.571Z,3.83
2023-04-16T13:40:43.842Z,3.92
2023-04-16T13:43:13.716Z,4.55
2023-04-16T13:45:44.800Z,6.50
2023-04-16T13:48:13.171Z,4.97
2023-04-16T13:50:41.644Z,5.00
2023-04-16T13:53:12.651Z,5.25
2023-04-16T13:55:42.380Z,6.15
2023-04-16T13:58:13.500Z,5.47
2023-04-16T14:00:41.958Z,5.53
2023-04-16T14:03:11.031Z,6.68
2023-04-16T14:05:39.375Z,5.90
2023-04-16T14:08:10.571Z,6.05
2023-04-16T14:10:38.878Z,6.43
2023-04-16T14:13:08.676Z,7.25
2023-04-16T14:15:37.368Z,9.63
2023-04-16T14:18:06.207Z,7.15
2023-04-16T14:20:39.810Z,7.13
2023-04-16T14:23:08.486Z,6.82
2023-04-16T14:25:36.767Z,6.72
2023-04-16T14:28:05.406Z,5.80
2023-04-16T14:30:35.181Z,6.85
2023-04-16T14:33:04.117Z,5.30
2023-04-16T14:35:32.747Z,4.68
2023-04-16T14:38:02.303Z,4.00
2023-04-16T14:40:30.583Z,4.20
2023-04-16T14:43:02.056Z,3.17
2023-04-16T14:45:32.400Z,3.92
2023-04-16T14:48:02.248Z,4.40
2023-04-16T14:50:30.557Z,3.75
2023-04-16T14:53:02.214Z,3.85
2023-04-16T14:55:30.601Z,3.85
2023-04-16T14:57:59.967Z,4.40
2023-04-16T15:00:28.572Z,4.38
2023-04-16T15:03:00.628Z,4.00
2023-04-16T15:05:31.514Z,4.90
2023-04-16T15:08:03.511Z,5.07
2023-04-16T15:10:32.851Z,5.13
2023-04-16T15:13:01.181Z,3.95
2023-04-16T15:15:29.614Z,4.28
2023-04-16T15:18:04.080Z,3.60
2023-04-16T15:20:33.992Z,4.30
2023-04-16T15:23:02.420Z,4.47
2023-04-16T15:25:30.670Z,4.50
2023-04-16T15:28:02.646Z,6.75
2023-04-16T15:30:32.459Z,4.38
2023-04-16T15:33:00.768Z,4.60
2023-04-16T15:35:29.077Z,4.20
2023-04-16T15:37:58.825Z,3.88
2023-04-16T15:40:27.600Z,4.20
2023-04-16T15:42:56.874Z,3.97
2023-04-16T15:45:25.143Z,3.80
2023-04-16T15:47:56.200Z,3.58
2023-04-16T15:50:24.677Z,4.40
2023-04-16T15:52:52.989Z,4.35
2023-04-16T15:55:23.047Z,4.20
2023-04-16T15:57:51.370Z,3.70
2023-04-16T16:00:23.862Z,4.20
2023-04-16T16:02:52.562Z,4.05
2023-04-16T16:05:21.278Z,3.80
2023-04-16T16:07:49.743Z,4.30
2023-04-16T16:10:20.680Z,4.47
2023-04-16T16:12:50.519Z,4.78
2023-04-16T16:15:18.945Z,5.22
2023-04-16T16:17:52.864Z,5.05
2023-04-16T16:20:22.649Z,5.03
2023-04-16T16:22:53.147Z,5.13
2023-04-16T16:25:21.575Z,4.82
2023-04-16T16:27:52.767Z,5.82
2023-04-16T16:30:24.460Z,5.55
2023-04-16T16:32:52.906Z,4.65
2023-04-16T16:35:21.562Z,5.20
2023-04-16T16:37:55.324Z,5.60
2023-04-16T16:40:23.787Z,35.47
2023-04-16T16:42:56.188Z,9.60
2023-04-16T16:45:30.850Z,6.53
2023-04-16T16:47:59.477Z,6.25
2023-04-16T16:50:28.024Z,6.00
2023-04-16T16:52:56.275Z,6.00
2023-04-16T16:55:32.866Z,6.80
2023-04-16T16:58:05.476Z,6.63
2023-04-16T17:00:34.239Z,6.05
2023-04-16T17:03:05.870Z,6.35
2023-04-16T17:05:40.638Z,6.85
2023-04-16T17:08:08.880Z,6.75
2023-04-16T17:10:52.455Z,6.85
2023-04-16T17:13:22.399Z,5.75
2023-04-16T17:15:50.670Z,7.15
2023-04-16T17:18:18.938Z,6.20
2023-04-16T17:20:47.206Z,6.75
2023-04-16T17:23:15.661Z,6.85
2023-04-16T17:25:44.634Z,8.07
2023-04-16T17:28:12.874Z,6.90
2023-04-16T17:30:42.656Z,6.45
2023-04-16T17:33:11.389Z,5.78
2023-04-16T17:35:41.076Z,8.60
2023-04-16T17:38:12.241Z,5.07
2023-04-16T17:40:43.315Z,5.55
2023-04-16T17:43:11.676Z,4.90
2023-04-16T17:45:39.940Z,5.13
2023-04-16T17:48:09.897Z,5.35
2023-04-16T17:50:39.626Z,5.00
2023-04-16T17:53:08.140Z,5.50
2023-04-16T17:55:48.872Z,5.28
2023-04-16T17:58:17.092Z,4.38
2023-04-16T18:00:45.923Z,5.00
2023-04-16T18:03:15.905Z,4.90
2023-04-16T18:05:55.907Z,4.88
2023-04-16T18:08:24.689Z,4.57
2023-04-16T18:10:56.811Z,4.70
2023-04-16T18:13:25.693Z,5.10
2023-04-16T18:15:59.831Z,4.88
2023-04-16T18:18:29.675Z,4.70
2023-04-16T18:20:57.984Z,4.80
2023-04-16T18:23:29.092Z,6.45
2023-04-16T18:25:57.397Z,6.22
2023-04-16T18:28:25.868Z,5.82
2023-04-16T18:30:57.208Z,5.75
2023-04-16T18:33:50.007Z,6.25
2023-04-16T18:36:19.506Z,6.07
2023-04-16T18:39:00.262Z,6.75
2023-04-16T18:41:29.768Z,5.60
2023-04-16T18:44:02.314Z,5.70
2023-04-16T18:46:30.688Z,7.30
2023-04-16T18:49:02.391Z,6.13
2023-04-16T18:51:32.041Z,5.80
2023-04-16T18:54:00.677Z,6.47
2023-04-16T18:56:42.215Z,6.43
2023-04-16T18:59:10.913Z,6.63
2023-04-16T19:01:45.598Z,5.60
2023-04-16T19:04:16.838Z,4.75
2023-04-16T19:06:48.355Z,6.72
2023-04-16T19:09:17.313Z,8.23
2023-04-16T19:11:46.003Z,9.30
2023-04-16T19:14:14.360Z,10.40
2023-04-16T19:16:42.726Z,10.82
2023-04-16T19:19:11.486Z,9.50
2023-04-16T19:21:39.983Z,9.07
2023-04-16T19:24:10.187Z,10.02
2023-04-16T19:26:38.563Z,9.80
2023-04-16T19:29:06.861Z,9.75
2023-04-16T19:31:41.081Z,9.93
2023-04-16T19:34:09.609Z,11.23
2023-04-16T19:36:38.363Z,10.82
2023-04-16T19:39:07.046Z,10.25
2023-04-16T19:41:37.089Z,9.95
2023-04-16T19:44:05.822Z,9.35
2023-04-16T19:46:36.764Z,9.30
2023-04-16T19:49:05.066Z,9.18
2023-04-16T19:51:34.018Z,7.90
2023-04-16T19:54:05.810Z,8.48
2023-04-16T19:56:41.634Z,8.50
2023-04-16T19:59:15.372Z,8.77
2023-04-16T20:01:43.805Z,8.38
2023-04-16T20:04:12.077Z,6.95
2023-04-16T20:06:40.345Z,7.68
2023-04-16T20:09:08.736Z,6.40
2023-04-16T20:11:37.138Z,6.00
2023-04-16T20:14:06.971Z,5.90
2023-04-16T20:16:38.676Z,5.55
2023-04-16T20:19:09.122Z,8.27
2023-04-16T20:21:40.445Z,6.88
2023-04-16T20:24:15.587Z,7.30
2023-04-16T20:26:43.886Z,7.30
2023-04-16T20:29:13.625Z,8.10
2023-04-16T20:31:46.173Z,7.88
2023-04-16T20:34:14.522Z,7.93
2023-04-16T20:36:42.768Z,6.82
2023-04-16T20:39:11.709Z,6.10
2023-04-16T20:41:46.750Z,5.97
2023-04-16T20:44:18.774Z,5.22
2023-04-16T20:46:49.684Z,5.88
2023-04-16T20:49:18.816Z,5.70
2023-04-16T20:51:47.171Z,4.80
2023-04-16T20:54:15.356Z,4.22
2023-04-16T20:56:44.823Z,4.50
2023-04-16T20:59:13.881Z,3.75
2023-04-16T21:01:43.561Z,3.70
2023-04-16T21:04:12.047Z,3.65
2023-04-16T21:06:49.729Z,3.65
2023-04-16T21:09:17.934Z,3.65
2023-04-16T21:11:46.264Z,3.60
2023-04-16T21:14:14.604Z,3.70
2023-04-16T21:16:44.456Z,2.95
2023-04-16T21:19:15.827Z,3.72
2023-04-16T21:21:44.077Z,3.95
2023-04-16T21:24:12.289Z,3.30
2023-04-16T21:26:40.662Z,3.45
2023-04-16T21:29:08.974Z,3.10
2023-04-16T21:31:37.322Z,3.58
2023-04-16T21:34:07.409Z,3.40
2023-04-16T21:36:35.627Z,3.60
2023-04-16T21:39:04.017Z,4.10
2023-04-16T21:41:32.297Z,3.20
2023-04-16T21:44:00.558Z,3.55
2023-04-16T21:46:28.790Z,3.50
2023-04-16T21:48:56.993Z,3.95
2023-04-16T21:51:29.968Z,3.25
2023-04-16T21:53:58.514Z,3.72
2023-04-16T21:56:27.169Z,4.25
2023-04-16T21:58:55.444Z,3.53
2023-04-16T22:01:23.887Z,3.80
2023-04-16T22:03:52.571Z,4.18
2023-04-16T22:06:24.858Z,4.70
2023-04-16T22:08:54.576Z,4.22
2023-04-16T22:11:22.908Z,4.55
2023-04-16T22:13:51.947Z,4.53
2023-04-16T22:16:20.244Z,5.00
2023-04-16T22:18:48.574Z,4.65
2023-04-16T22:21:16.873Z,4.50
2023-04-16T22:23:47.702Z,4.75
2023-04-16T22:26:17.404Z,5.88
2023-04-16T22:28:46.613Z,4.60
2023-04-16T22:31:14.891Z,5.30
2023-04-16T22:33:43.234Z,4.88
2023-04-16T22:36:11.500Z,5.20
2023-04-16T22:38:39.920Z,5.07
2023-04-16T22:41:08.375Z,4.45
2023-04-16T22:43:38.147Z,4.35
2023-04-16T22:46:08.182Z,5.43
2023-04-16T22:48:38.783Z,4.55
2023-04-16T22:51:09.754Z,4.95
2023-04-16T22:53:38.356Z,4.95
2023-04-16T22:56:07.303Z,5.30
2023-04-16T22:58:37.408Z,4.90
2023-04-16T23:01:06.077Z,5.60
2023-04-16T23:03:34.517Z,5.25
2023-04-16T23:06:03.655Z,4.45
2023-04-16T23:08:32.128Z,5.03
2023-04-16T23:11:00.409Z,4.47
2023-04-16T23:13:28.607Z,5.20
2023-04-16T23:15:58.364Z,5.18
2023-04-16T23:18:26.705Z,4.20
2023-04-16T23:20:55.066Z,5.10
2023-04-16T23:23:23.525Z,5.30
2023-04-16T23:25:54.272Z,4.93
2023-04-16T23:28:22.772Z,5.10
2023-04-16T23:30:53.617Z,5.53
2023-04-16T23:33:23.401Z,5.90
2023-04-16T23:35:51.704Z,5.57
2023-04-16T23:38:19.947Z,5.68
2023-04-16T23:40:48.348Z,5.88
2023-04-16T23:43:16.722Z,6.20
2023-04-16T23:45:45.182Z,6.50
2023-04-16T23:48:13.667Z,7.15
2023-04-16T23:50:43.379Z,7.45
2023-04-16T23:53:11.843Z,8.02
2023-04-16T23:55:40.116Z,7.07
2023-04-16T23:58:08.521Z,8.18
